Terminal Aerodrome Forecast
Issued by NWS Detroit/Pontiac, MI

Home | Current Version | Previous Version | Text Only | Print | Product List | Glossary On
Versions: 1 2 3 4 5 6 7 8 9 10 11 12 13 14 15 16 17 18 19
000
FTUS43 KDTX 311506 AAA
TAFFNT
TAF AMD
KFNT 311506Z 3115/0112 35009KT P6SM SCT018 BKN025
     FM311600 35009KT P6SM SCT025 BKN035
     FM311900 35010KT P6SM SCT050
     FM010200 34006KT P6SM SCT035
     FM010900 36008KT P6SM BKN025=

USA.gov is the U.S. government's official web portal to all federal, state and local government web resources and services.